sensor_id;sensor_type;location;lat;lon;timestamp;temperature;humidity
10030;DHT22;5055;52.054;8.524;2022-11-18T00:01:23;5.80;97.00
10030;DHT22;5055;52.054;8.524;2022-11-18T00:03:52;5.80;97.00
10030;DHT22;5055;52.054;8.524;2022-11-18T00:06:22;5.80;97.00
10030;DHT22;5055;52.054;8.524;2022-11-18T00:08:56;5.80;97.00
10030;DHT22;5055;52.054;8.524;2022-11-18T00:11:26;5.80;97.00
10030;DHT22;5055;52.054;8.524;2022-11-18T00:14:14;5.80;97.00
10030;DHT22;5055;52.054;8.524;2022-11-18T00:16:51;5.80;97.00
10030;DHT22;5055;52.054;8.524;2022-11-18T00:19:25;5.70;97.00
10030;DHT22;5055;52.054;8.524;2022-11-18T00:21:54;5.70;97.00
10030;DHT22;5055;52.054;8.524;2022-11-18T00:24:24;5.60;97.00
10030;DHT22;5055;52.054;8.524;2022-11-18T00:26:53;5.60;97.00
10030;DHT22;5055;52.054;8.524;2022-11-18T00:29:23;5.60;97.00
10030;DHT22;5055;52.054;8.524;2022-11-18T00:31:54;5.50;97.00
10030;DHT22;5055;52.054;8.524;2022-11-18T00:34:23;5.40;97.00
10030;DHT22;5055;52.054;8.524;2022-11-18T00:36:55;5.40;97.00
10030;DHT22;5055;52.054;8.524;2022-11-18T00:39:24;5.30;97.00
10030;DHT22;5055;52.054;8.524;2022-11-18T00:41:53;5.30;97.00
10030;DHT22;5055;52.054;8.524;2022-11-18T00:44:38;5.30;97.00
10030;DHT22;5055;52.054;8.524;2022-11-18T00:47:07;5.20;97.00
10030;DHT22;5055;52.054;8.524;2022-11-18T00:49:35;5.20;97.00
10030;DHT22;5055;52.054;8.524;2022-11-18T00:52:03;5.20;97.00
10030;DHT22;5055;52.054;8.524;2022-11-18T00:54:35;5.20;97.00
10030;DHT22;5055;52.054;8.524;2022-11-18T00:57:03;5.10;97.00
10030;DHT22;5055;52.054;8.524;2022-11-18T00:59:32;5.10;97.00
10030;DHT22;5055;52.054;8.524;2022-11-18T01:02:00;5.10;97.00
10030;DHT22;5055;52.054;8.524;2022-11-18T01:04:29;5.10;97.00
10030;DHT22;5055;52.054;8.524;2022-11-18T01:06:57;5.10;97.00
10030;DHT22;5055;52.054;8.524;2022-11-18T01:09:26;5.10;97.00
10030;DHT22;5055;52.054;8.524;2022-11-18T01:11:56;5.20;97.00
10030;DHT22;5055;52.054;8.524;2022-11-18T01:14:42;5.20;97.00
10030;DHT22;5055;52.054;8.524;2022-11-18T01:17:11;5.20;97.00
10030;DHT22;5055;52.054;8.524;2022-11-18T01:19:42;5.20;97.00
10030;DHT22;5055;52.054;8.524;2022-11-18T01:22:10;5.30;97.00
10030;DHT22;5055;52.054;8.524;2022-11-18T01:24:39;5.30;97.00
10030;DHT22;5055;52.054;8.524;2022-11-18T01:27:09;5.30;97.00
10030;DHT22;5055;52.054;8.524;2022-11-18T01:29:37;5.40;97.00
10030;DHT22;5055;52.054;8.524;2022-11-18T01:32:05;5.40;97.00
10030;DHT22;5055;52.054;8.524;2022-11-18T01:34:50;5.40;97.00
10030;DHT22;5055;52.054;8.524;2022-11-18T01:37:19;5.40;97.00
10030;DHT22;5055;52.054;8.524;2022-11-18T01:39:47;5.50;97.00
10030;DHT22;5055;52.054;8.524;2022-11-18T01:42:17;5.50;97.00
10030;DHT22;5055;52.054;8.524;2022-11-18T01:45:05;5.50;97.00
10030;DHT22;5055;52.054;8.524;2022-11-18T01:47:45;5.60;97.00
10030;DHT22;5055;52.054;8.524;2022-11-18T01:50:16;5.60;97.00
10030;DHT22;5055;52.054;8.524;2022-11-18T01:52:47;5.60;97.00
10030;DHT22;5055;52.054;8.524;2022-11-18T01:55:22;5.60;97.00
10030;DHT22;5055;52.054;8.524;2022-11-18T01:57:57;5.60;97.00
10030;DHT22;5055;52.054;8.524;2022-11-18T02:00:29;5.60;97.00
10030;DHT22;5055;52.054;8.524;2022-11-18T02:02:58;5.60;97.00
10030;DHT22;5055;52.054;8.524;2022-11-18T02:05:29;5.60;97.00
10030;DHT22;5055;52.054;8.524;2022-11-18T02:08:00;5.60;97.00
10030;DHT22;5055;52.054;8.524;2022-11-18T02:10:29;5.70;97.00
10030;DHT22;5055;52.054;8.524;2022-11-18T02:12:59;5.70;97.00
10030;DHT22;5055;52.054;8.524;2022-11-18T02:15:44;5.70;97.00
10030;DHT22;5055;52.054;8.524;2022-11-18T02:18:20;5.80;97.00
10030;DHT22;5055;52.054;8.524;2022-11-18T02:20:54;5.80;97.00
10030;DHT22;5055;52.054;8.524;2022-11-18T02:23:57;5.80;97.00
10030;DHT22;5055;52.054;8.524;2022-11-18T02:26:52;5.80;97.00
10030;DHT22;5055;52.054;8.524;2022-11-18T02:29:26;5.90;97.00
10030;DHT22;5055;52.054;8.524;2022-11-18T02:31:57;5.90;97.00
10030;DHT22;5055;52.054;8.524;2022-11-18T02:34:37;5.90;97.00
10030;DHT22;5055;52.054;8.524;2022-11-18T02:37:11;5.90;97.00
10030;DHT22;5055;52.054;8.524;2022-11-18T02:40:02;5.80;97.00
10030;DHT22;5055;52.054;8.524;2022-11-18T02:42:50;5.80;97.00
10030;DHT22;5055;52.054;8.524;2022-11-18T02:45:21;5.80;97.00
10030;DHT22;5055;52.054;8.524;2022-11-18T02:47:51;5.80;97.00
10030;DHT22;5055;52.054;8.524;2022-11-18T02:50:24;5.90;97.00
10030;DHT22;5055;52.054;8.524;2022-11-18T02:52:57;5.90;97.00
10030;DHT22;5055;52.054;8.524;2022-11-18T02:55:29;5.90;97.00
10030;DHT22;5055;52.054;8.524;2022-11-18T02:57:59;5.90;97.00
10030;DHT22;5055;52.054;8.524;2022-11-18T03:00:30;5.90;97.00
10030;DHT22;5055;52.054;8.524;2022-11-18T03:02:58;5.90;97.00
10030;DHT22;5055;52.054;8.524;2022-11-18T03:05:38;5.90;97.00
10030;DHT22;5055;52.054;8.524;2022-11-18T03:08:13;5.90;97.00
10030;DHT22;5055;52.054;8.524;2022-11-18T03:10:48;5.90;97.00
10030;DHT22;5055;52.054;8.524;2022-11-18T03:13:23;5.90;97.00
10030;DHT22;5055;52.054;8.524;2022-11-18T03:15:59;6.00;97.00
10030;DHT22;5055;52.054;8.524;2022-11-18T03:18:35;6.00;97.00
10030;DHT22;5055;52.054;8.524;2022-11-18T03:21:10;6.00;97.00
10030;DHT22;5055;52.054;8.524;2022-11-18T03:23:42;6.10;97.00
10030;DHT22;5055;52.054;8.524;2022-11-18T03:26:12;6.10;97.00
10030;DHT22;5055;52.054;8.524;2022-11-18T03:28:47;6.10;97.00
10030;DHT22;5055;52.054;8.524;2022-11-18T03:31:21;6.20;97.00
10030;DHT22;5055;52.054;8.524;2022-11-18T03:33:53;6.20;97.00
10030;DHT22;5055;52.054;8.524;2022-11-18T03:36:26;6.20;97.00
10030;DHT22;5055;52.054;8.524;2022-11-18T03:38:58;6.20;97.00
10030;DHT22;5055;52.054;8.524;2022-11-18T03:41:29;6.20;97.00
10030;DHT22;5055;52.054;8.524;2022-11-18T03:44:03;6.20;97.00
10030;DHT22;5055;52.054;8.524;2022-11-18T03:46:38;6.20;97.00
10030;DHT22;5055;52.054;8.524;2022-11-18T03:49:10;6.20;97.00
10030;DHT22;5055;52.054;8.524;2022-11-18T03:51:41;6.30;97.00
10030;DHT22;5055;52.054;8.524;2022-11-18T03:54:14;6.30;97.00
10030;DHT22;5055;52.054;8.524;2022-11-18T03:56:48;6.30;97.00
10030;DHT22;5055;52.054;8.524;2022-11-18T03:59:21;6.30;97.00
10030;DHT22;5055;52.054;8.524;2022-11-18T04:01:55;6.30;97.00
10030;DHT22;5055;52.054;8.524;2022-11-18T04:04:26;6.30;97.00
10030;DHT22;5055;52.054;8.524;2022-11-18T04:07:01;6.40;97.00
10030;DHT22;5055;52.054;8.524;2022-11-18T04:09:34;6.40;97.00
10030;DHT22;5055;52.054;8.524;2022-11-18T04:12:07;6.40;97.00
10030;DHT22;5055;52.054;8.524;2022-11-18T04:14:39;6.40;97.00
10030;DHT22;5055;52.054;8.524;2022-11-18T04:17:11;6.40;97.00
10030;DHT22;5055;52.054;8.524;2022-11-18T04:19:41;6.40;97.00
10030;DHT22;5055;52.054;8.524;2022-11-18T04:22:09;6.50;97.00
10030;DHT22;5055;52.054;8.524;2022-11-18T04:24:38;6.50;97.00
10030;DHT22;5055;52.054;8.524;2022-11-18T04:27:07;6.50;97.00
10030;DHT22;5055;52.054;8.524;2022-11-18T04:29:35;6.50;97.00
10030;DHT22;5055;52.054;8.524;2022-11-18T04:32:04;6.50;97.00
10030;DHT22;5055;52.054;8.524;2022-11-18T04:34:34;6.50;97.00
10030;DHT22;5055;52.054;8.524;2022-11-18T04:37:03;6.50;97.00
10030;DHT22;5055;52.054;8.524;2022-11-18T04:39:31;6.50;97.00
10030;DHT22;5055;52.054;8.524;2022-11-18T04:42:00;6.60;97.00
10030;DHT22;5055;52.054;8.524;2022-11-18T04:44:29;6.60;97.00
10030;DHT22;5055;52.054;8.524;2022-11-18T04:47:00;6.60;97.00
10030;DHT22;5055;52.054;8.524;2022-11-18T04:49:29;6.60;97.00
10030;DHT22;5055;52.054;8.524;2022-11-18T04:51:59;6.60;97.00
10030;DHT22;5055;52.054;8.524;2022-11-18T04:54:27;6.70;97.00
10030;DHT22;5055;52.054;8.524;2022-11-18T04:56:56;6.70;97.00
10030;DHT22;5055;52.054;8.524;2022-11-18T04:59:26;6.70;97.00
10030;DHT22;5055;52.054;8.524;2022-11-18T05:02:07;6.70;97.00
10030;DHT22;5055;52.054;8.524;2022-11-18T05:04:53;6.70;97.00
10030;DHT22;5055;52.054;8.524;2022-11-18T05:07:22;6.70;97.00
10030;DHT22;5055;52.054;8.524;2022-11-18T05:09:51;6.80;97.00
10030;DHT22;5055;52.054;8.524;2022-11-18T05:12:19;6.80;97.00
10030;DHT22;5055;52.054;8.524;2022-11-18T05:15:07;6.80;97.00
10030;DHT22;5055;52.054;8.524;2022-11-18T05:17:36;6.80;97.00
10030;DHT22;5055;52.054;8.524;2022-11-18T05:20:06;6.90;97.00
10030;DHT22;5055;52.054;8.524;2022-11-18T05:22:36;6.90;97.00
10030;DHT22;5055;52.054;8.524;2022-11-18T05:25:05;6.90;97.00
10030;DHT22;5055;52.054;8.524;2022-11-18T05:27:34;6.90;97.00
10030;DHT22;5055;52.054;8.524;2022-11-18T05:30:03;6.90;97.00
10030;DHT22;5055;52.054;8.524;2022-11-18T05:32:31;7.00;97.00
10030;DHT22;5055;52.054;8.524;2022-11-18T05:34:59;7.00;97.00
10030;DHT22;5055;52.054;8.524;2022-11-18T05:37:31;7.00;97.00
10030;DHT22;5055;52.054;8.524;2022-11-18T05:40:01;7.00;97.00
10030;DHT22;5055;52.054;8.524;2022-11-18T05:42:29;7.00;97.00
10030;DHT22;5055;52.054;8.524;2022-11-18T05:45:16;7.00;97.00
10030;DHT22;5055;52.054;8.524;2022-11-18T05:47:46;7.10;97.00
10030;DHT22;5055;52.054;8.524;2022-11-18T05:50:28;7.10;97.00
10030;DHT22;5055;52.054;8.524;2022-11-18T05:52:57;7.10;97.00
10030;DHT22;5055;52.054;8.524;2022-11-18T05:55:30;7.10;97.00
10030;DHT22;5055;52.054;8.524;2022-11-18T05:58:00;7.10;97.00
10030;DHT22;5055;52.054;8.524;2022-11-18T06:00:30;7.10;97.00
10030;DHT22;5055;52.054;8.524;2022-11-18T06:03:00;7.10;97.00
10030;DHT22;5055;52.054;8.524;2022-11-18T06:05:28;7.00;97.00
10030;DHT22;5055;52.054;8.524;2022-11-18T06:07:57;7.00;97.00
10030;DHT22;5055;52.054;8.524;2022-11-18T06:10:30;7.00;97.00
10030;DHT22;5055;52.054;8.524;2022-11-18T06:13:04;7.00;97.00
10030;DHT22;5055;52.054;8.524;2022-11-18T06:15:36;7.00;97.00
10030;DHT22;5055;52.054;8.524;2022-11-18T06:18:08;7.00;97.00
10030;DHT22;5055;52.054;8.524;2022-11-18T06:20:39;7.00;97.00
10030;DHT22;5055;52.054;8.524;2022-11-18T06:23:08;7.00;97.00
10030;DHT22;5055;52.054;8.524;2022-11-18T06:25:39;7.00;97.00
10030;DHT22;5055;52.054;8.524;2022-11-18T06:28:10;7.00;97.00
10030;DHT22;5055;52.054;8.524;2022-11-18T06:30:39;7.00;97.00
10030;DHT22;5055;52.054;8.524;2022-11-18T06:33:08;7.00;97.00
10030;DHT22;5055;52.054;8.524;2022-11-18T06:35:36;7.00;97.00
10030;DHT22;5055;52.054;8.524;2022-11-18T06:38:04;7.00;97.00
10030;DHT22;5055;52.054;8.524;2022-11-18T06:40:33;7.00;97.00
10030;DHT22;5055;52.054;8.524;2022-11-18T06:43:06;7.00;97.00
10030;DHT22;5055;52.054;8.524;2022-11-18T06:45:52;7.00;97.00
10030;DHT22;5055;52.054;8.524;2022-11-18T06:48:35;7.10;97.00
10030;DHT22;5055;52.054;8.524;2022-11-18T06:51:04;7.10;97.00
10030;DHT22;5055;52.054;8.524;2022-11-18T06:53:32;7.10;97.00
10030;DHT22;5055;52.054;8.524;2022-11-18T06:56:02;7.10;97.00
10030;DHT22;5055;52.054;8.524;2022-11-18T06:58:31;7.10;97.00
10030;DHT22;5055;52.054;8.524;2022-11-18T07:01:08;7.10;97.00
10030;DHT22;5055;52.054;8.524;2022-11-18T07:03:38;7.10;97.00
10030;DHT22;5055;52.054;8.524;2022-11-18T07:06:07;7.10;97.00
10030;DHT22;5055;52.054;8.524;2022-11-18T07:08:36;7.10;97.00
10030;DHT22;5055;52.054;8.524;2022-11-18T07:11:07;7.20;97.00
10030;DHT22;5055;52.054;8.524;2022-11-18T07:13:37;7.20;97.00
10030;DHT22;5055;52.054;8.524;2022-11-18T07:16:11;7.20;97.00
10030;DHT22;5055;52.054;8.524;2022-11-18T07:18:41;7.20;97.00
10030;DHT22;5055;52.054;8.524;2022-11-18T07:21:12;7.20;97.00
10030;DHT22;5055;52.054;8.524;2022-11-18T07:23:41;7.20;97.00
10030;DHT22;5055;52.054;8.524;2022-11-18T07:26:10;7.20;97.00
10030;DHT22;5055;52.054;8.524;2022-11-18T07:28:40;7.30;97.00
10030;DHT22;5055;52.054;8.524;2022-11-18T07:31:10;7.20;97.00
10030;DHT22;5055;52.054;8.524;2022-11-18T07:33:39;7.20;97.00
10030;DHT22;5055;52.054;8.524;2022-11-18T07:36:09;7.30;97.00
10030;DHT22;5055;52.054;8.524;2022-11-18T07:38:38;7.20;97.00
10030;DHT22;5055;52.054;8.524;2022-11-18T07:41:08;7.20;97.00
10030;DHT22;5055;52.054;8.524;2022-11-18T07:43:37;7.30;97.00
10030;DHT22;5055;52.054;8.524;2022-11-18T07:46:12;7.30;97.00
10030;DHT22;5055;52.054;8.524;2022-11-18T07:48:42;7.30;97.00
10030;DHT22;5055;52.054;8.524;2022-11-18T07:51:11;7.30;97.00
10030;DHT22;5055;52.054;8.524;2022-11-18T07:53:43;7.30;97.00
10030;DHT22;5055;52.054;8.524;2022-11-18T07:56:12;7.30;97.00
10030;DHT22;5055;52.054;8.524;2022-11-18T07:58:42;7.30;97.00
10030;DHT22;5055;52.054;8.524;2022-11-18T08:01:14;7.30;97.00
10030;DHT22;5055;52.054;8.524;2022-11-18T08:03:43;7.30;97.00
10030;DHT22;5055;52.054;8.524;2022-11-18T08:06:14;7.30;97.00
10030;DHT22;5055;52.054;8.524;2022-11-18T08:08:43;7.30;97.00
10030;DHT22;5055;52.054;8.524;2022-11-18T08:11:13;7.30;97.00
10030;DHT22;5055;52.054;8.524;2022-11-18T08:13:48;7.40;97.00
10030;DHT22;5055;52.054;8.524;2022-11-18T08:16:20;7.30;97.00
10030;DHT22;5055;52.054;8.524;2022-11-18T08:18:50;7.30;97.00
10030;DHT22;5055;52.054;8.524;2022-11-18T08:21:20;7.30;97.00
10030;DHT22;5055;52.054;8.524;2022-11-18T08:23:49;7.30;97.00
10030;DHT22;5055;52.054;8.524;2022-11-18T08:26:19;7.40;97.00
10030;DHT22;5055;52.054;8.524;2022-11-18T08:28:47;7.40;97.00
10030;DHT22;5055;52.054;8.524;2022-11-18T08:31:19;7.40;97.00
10030;DHT22;5055;52.054;8.524;2022-11-18T08:33:48;7.40;97.00
10030;DHT22;5055;52.054;8.524;2022-11-18T08:36:18;7.40;97.00
10030;DHT22;5055;52.054;8.524;2022-11-18T08:38:47;7.40;97.00
10030;DHT22;5055;52.054;8.524;2022-11-18T08:41:18;7.40;97.00
10030;DHT22;5055;52.054;8.524;2022-11-18T08:43:47;7.30;97.00
10030;DHT22;5055;52.054;8.524;2022-11-18T08:46:15;7.30;97.00
10030;DHT22;5055;52.054;8.524;2022-11-18T08:48:45;7.30;97.00
10030;DHT22;5055;52.054;8.524;2022-11-18T08:51:13;7.30;97.00
10030;DHT22;5055;52.054;8.524;2022-11-18T08:53:42;7.30;97.00
10030;DHT22;5055;52.054;8.524;2022-11-18T08:56:14;7.30;97.00
10030;DHT22;5055;52.054;8.524;2022-11-18T08:58:43;7.30;97.00
10030;DHT22;5055;52.054;8.524;2022-11-18T09:01:12;7.30;97.00
10030;DHT22;5055;52.054;8.524;2022-11-18T09:03:45;7.30;97.00
10030;DHT22;5055;52.054;8.524;2022-11-18T09:06:16;7.30;97.00
10030;DHT22;5055;52.054;8.524;2022-11-18T09:08:45;7.30;97.00
10030;DHT22;5055;52.054;8.524;2022-11-18T09:11:15;7.30;97.00
10030;DHT22;5055;52.054;8.524;2022-11-18T09:13:44;7.30;97.00
10030;DHT22;5055;52.054;8.524;2022-11-18T09:16:34;7.30;97.00
10030;DHT22;5055;52.054;8.524;2022-11-18T09:19:03;7.30;97.00
10030;DHT22;5055;52.054;8.524;2022-11-18T09:21:52;7.30;97.00
10030;DHT22;5055;52.054;8.524;2022-11-18T09:24:20;7.30;97.00
10030;DHT22;5055;52.054;8.524;2022-11-18T09:26:49;7.30;97.00
10030;DHT22;5055;52.054;8.524;2022-11-18T09:29:19;7.20;97.00
10030;DHT22;5055;52.054;8.524;2022-11-18T09:31:51;7.20;97.00
10030;DHT22;5055;52.054;8.524;2022-11-18T09:34:21;7.20;97.00
10030;DHT22;5055;52.054;8.524;2022-11-18T09:36:50;7.10;97.00
10030;DHT22;5055;52.054;8.524;2022-11-18T09:39:22;7.10;97.00
10030;DHT22;5055;52.054;8.524;2022-11-18T09:41:58;7.10;97.00
10030;DHT22;5055;52.054;8.524;2022-11-18T09:44:43;7.10;97.00
10030;DHT22;5055;52.054;8.524;2022-11-18T09:47:19;7.00;97.00
10030;DHT22;5055;52.054;8.524;2022-11-18T09:49:53;7.00;97.00
10030;DHT22;5055;52.054;8.524;2022-11-18T09:52:26;7.00;97.00
10030;DHT22;5055;52.054;8.524;2022-11-18T09:55:03;7.00;97.00
10030;DHT22;5055;52.054;8.524;2022-11-18T09:57:37;7.00;97.00
10030;DHT22;5055;52.054;8.524;2022-11-18T10:00:12;7.00;97.00
10030;DHT22;5055;52.054;8.524;2022-11-18T10:02:51;7.00;97.00
10030;DHT22;5055;52.054;8.524;2022-11-18T10:05:23;7.00;97.00
10030;DHT22;5055;52.054;8.524;2022-11-18T10:08:03;7.10;97.00
10030;DHT22;5055;52.054;8.524;2022-11-18T10:10:40;7.00;97.00
10030;DHT22;5055;52.054;8.524;2022-11-18T10:13:17;7.00;97.00
10030;DHT22;5055;52.054;8.524;2022-11-18T10:15:53;7.00;97.00
10030;DHT22;5055;52.054;8.524;2022-11-18T10:18:27;7.00;97.00
10030;DHT22;5055;52.054;8.524;2022-11-18T10:21:26;6.90;97.00
10030;DHT22;5055;52.054;8.524;2022-11-18T10:24:00;6.90;97.00
10030;DHT22;5055;52.054;8.524;2022-11-18T10:26:32;6.80;97.00
10030;DHT22;5055;52.054;8.524;2022-11-18T10:29:00;6.80;97.00
10030;DHT22;5055;52.054;8.524;2022-11-18T10:31:29;6.70;97.00
10030;DHT22;5055;52.054;8.524;2022-11-18T10:33:59;6.70;97.00
10030;DHT22;5055;52.054;8.524;2022-11-18T10:36:29;6.60;97.00
10030;DHT22;5055;52.054;8.524;2022-11-18T10:39:11;6.60;97.00
10030;DHT22;5055;52.054;8.524;2022-11-18T10:41:48;6.50;97.00
10030;DHT22;5055;52.054;8.524;2022-11-18T10:44:32;6.50;97.00
10030;DHT22;5055;52.054;8.524;2022-11-18T10:47:23;6.50;97.00
10030;DHT22;5055;52.054;8.524;2022-11-18T10:49:52;6.40;97.00
10030;DHT22;5055;52.054;8.524;2022-11-18T10:52:22;6.40;97.00
10030;DHT22;5055;52.054;8.524;2022-11-18T10:55:17;6.40;97.00
10030;DHT22;5055;52.054;8.524;2022-11-18T10:57:49;6.40;97.00
10030;DHT22;5055;52.054;8.524;2022-11-18T11:00:39;6.40;97.00
10030;DHT22;5055;52.054;8.524;2022-11-18T11:03:30;6.30;97.00
10030;DHT22;5055;52.054;8.524;2022-11-18T11:06:26;6.30;97.00
10030;DHT22;5055;52.054;8.524;2022-11-18T11:09:02;6.30;97.00
10030;DHT22;5055;52.054;8.524;2022-11-18T11:11:33;6.30;97.00
10030;DHT22;5055;52.054;8.524;2022-11-18T11:14:18;6.20;97.00
10030;DHT22;5055;52.054;8.524;2022-11-18T11:16:55;6.20;97.00
10030;DHT22;5055;52.054;8.524;2022-11-18T11:19:31;6.20;97.00
10030;DHT22;5055;52.054;8.524;2022-11-18T11:22:07;6.10;97.00
10030;DHT22;5055;52.054;8.524;2022-11-18T11:24:38;6.10;97.00
10030;DHT22;5055;52.054;8.524;2022-11-18T11:30:23;6.10;97.00
10030;DHT22;5055;52.054;8.524;2022-11-18T11:33:17;6.00;97.00
10030;DHT22;5055;52.054;8.524;2022-11-18T11:35:58;6.10;97.00
10030;DHT22;5055;52.054;8.524;2022-11-18T11:38:38;6.00;97.00
10030;DHT22;5055;52.054;8.524;2022-11-18T11:41:19;6.00;97.00
10030;DHT22;5055;52.054;8.524;2022-11-18T11:44:07;6.00;97.00
10030;DHT22;5055;52.054;8.524;2022-11-18T11:46:47;6.00;97.00
10030;DHT22;5055;52.054;8.524;2022-11-18T11:49:48;6.00;97.00
10030;DHT22;5055;52.054;8.524;2022-11-18T11:52:31;6.00;97.00
10030;DHT22;5055;52.054;8.524;2022-11-18T11:55:11;6.00;97.00
10030;DHT22;5055;52.054;8.524;2022-11-18T11:57:54;6.00;97.00
10030;DHT22;5055;52.054;8.524;2022-11-18T12:00:26;5.90;97.00
10030;DHT22;5055;52.054;8.524;2022-11-18T12:03:12;5.90;97.00
10030;DHT22;5055;52.054;8.524;2022-11-18T12:05:45;5.90;97.00
10030;DHT22;5055;52.054;8.524;2022-11-18T12:08:16;5.80;97.00
10030;DHT22;5055;52.054;8.524;2022-11-18T12:10:52;5.80;97.00
10030;DHT22;5055;52.054;8.524;2022-11-18T12:13:34;5.80;97.00
10030;DHT22;5055;52.054;8.524;2022-11-18T12:16:14;5.80;97.00
10030;DHT22;5055;52.054;8.524;2022-11-18T12:18:48;5.80;97.00
10030;DHT22;5055;52.054;8.524;2022-11-18T12:21:52;5.70;97.00
10030;DHT22;5055;52.054;8.524;2022-11-18T12:24:26;5.80;97.00
10030;DHT22;5055;52.054;8.524;2022-11-18T12:26:58;5.80;97.00
10030;DHT22;5055;52.054;8.524;2022-11-18T12:29:39;5.70;97.00
10030;DHT22;5055;52.054;8.524;2022-11-18T12:32:29;5.70;97.00
10030;DHT22;5055;52.054;8.524;2022-11-18T12:35:00;5.70;97.00
10030;DHT22;5055;52.054;8.524;2022-11-18T12:37:44;5.60;97.00
10030;DHT22;5055;52.054;8.524;2022-11-18T12:46:50;5.50;97.00
10030;DHT22;5055;52.054;8.524;2022-11-18T12:52:51;5.40;97.00
10030;DHT22;5055;52.054;8.524;2022-11-18T12:55:24;5.40;97.00
10030;DHT22;5055;52.054;8.524;2022-11-18T12:57:53;5.40;97.00
10030;DHT22;5055;52.054;8.524;2022-11-18T13:00:32;5.40;97.00
10030;DHT22;5055;52.054;8.524;2022-11-18T13:03:21;5.40;97.00
10030;DHT22;5055;52.054;8.524;2022-11-18T13:05:58;5.40;97.00
10030;DHT22;5055;52.054;8.524;2022-11-18T13:08:27;5.40;97.00
10030;DHT22;5055;52.054;8.524;2022-11-18T13:11:01;5.30;97.00
10030;DHT22;5055;52.054;8.524;2022-11-18T13:13:50;5.30;97.00
10030;DHT22;5055;52.054;8.524;2022-11-18T13:16:40;5.30;97.00
10030;DHT22;5055;52.054;8.524;2022-11-18T13:19:27;5.30;97.00
10030;DHT22;5055;52.054;8.524;2022-11-18T13:21:58;5.30;97.00
10030;DHT22;5055;52.054;8.524;2022-11-18T13:24:45;5.30;97.00
10030;DHT22;5055;52.054;8.524;2022-11-18T13:27:24;5.30;97.00
10030;DHT22;5055;52.054;8.524;2022-11-18T13:30:00;5.30;97.00
10030;DHT22;5055;52.054;8.524;2022-11-18T13:32:29;5.20;97.00
10030;DHT22;5055;52.054;8.524;2022-11-18T13:35:09;5.20;97.00
10030;DHT22;5055;52.054;8.524;2022-11-18T13:37:48;5.20;97.00
10030;DHT22;5055;52.054;8.524;2022-11-18T13:40:19;5.20;97.00
10030;DHT22;5055;52.054;8.524;2022-11-18T13:42:48;5.20;97.00
10030;DHT22;5055;52.054;8.524;2022-11-18T13:45:19;5.20;97.00
10030;DHT22;5055;52.054;8.524;2022-11-18T13:47:51;5.10;97.00
10030;DHT22;5055;52.054;8.524;2022-11-18T13:50:24;5.10;97.00
10030;DHT22;5055;52.054;8.524;2022-11-18T13:53:07;5.10;97.00
10030;DHT22;5055;52.054;8.524;2022-11-18T13:55:42;5.10;97.00
10030;DHT22;5055;52.054;8.524;2022-11-18T13:58:31;5.00;97.00
10030;DHT22;5055;52.054;8.524;2022-11-18T14:01:22;4.90;97.00
10030;DHT22;5055;52.054;8.524;2022-11-18T14:03:54;4.90;97.00
10030;DHT22;5055;52.054;8.524;2022-11-18T14:06:28;4.90;97.00
10030;DHT22;5055;52.054;8.524;2022-11-18T14:09:16;4.80;97.00
10030;DHT22;5055;52.054;8.524;2022-11-18T14:11:57;4.80;97.00
10030;DHT22;5055;52.054;8.524;2022-11-18T14:14:29;4.80;97.00
10030;DHT22;5055;52.054;8.524;2022-11-18T14:17:16;4.70;97.00
10030;DHT22;5055;52.054;8.524;2022-11-18T14:19:46;4.60;97.00
10030;DHT22;5055;52.054;8.524;2022-11-18T14:22:18;4.70;97.00
10030;DHT22;5055;52.054;8.524;2022-11-18T14:24:57;4.60;97.00
10030;DHT22;5055;52.054;8.524;2022-11-18T14:27:39;4.60;97.00
10030;DHT22;5055;52.054;8.524;2022-11-18T14:30:29;4.50;97.00
10030;DHT22;5055;52.054;8.524;2022-11-18T14:33:19;4.50;97.00
10030;DHT22;5055;52.054;8.524;2022-11-18T14:35:50;4.50;97.00
10030;DHT22;5055;52.054;8.524;2022-11-18T14:38:23;4.40;97.00
10030;DHT22;5055;52.054;8.524;2022-11-18T14:41:14;4.40;97.00
10030;DHT22;5055;52.054;8.524;2022-11-18T14:44:10;4.30;97.00
10030;DHT22;5055;52.054;8.524;2022-11-18T14:46:41;4.30;97.00
10030;DHT22;5055;52.054;8.524;2022-11-18T14:49:13;4.30;97.00
10030;DHT22;5055;52.054;8.524;2022-11-18T14:51:43;4.30;97.00
10030;DHT22;5055;52.054;8.524;2022-11-18T14:54:14;4.20;97.00
10030;DHT22;5055;52.054;8.524;2022-11-18T14:56:50;4.20;97.00
10030;DHT22;5055;52.054;8.524;2022-11-18T14:59:20;4.20;97.00
10030;DHT22;5055;52.054;8.524;2022-11-18T15:01:49;4.10;97.00
10030;DHT22;5055;52.054;8.524;2022-11-18T15:04:18;4.10;97.00
10030;DHT22;5055;52.054;8.524;2022-11-18T15:06:48;4.10;97.00
10030;DHT22;5055;52.054;8.524;2022-11-18T15:09:18;4.10;97.00
10030;DHT22;5055;52.054;8.524;2022-11-18T15:11:46;4.10;97.00
10030;DHT22;5055;52.054;8.524;2022-11-18T15:14:15;4.10;97.00
10030;DHT22;5055;52.054;8.524;2022-11-18T15:16:44;4.10;97.00
10030;DHT22;5055;52.054;8.524;2022-11-18T15:19:14;4.10;97.00
10030;DHT22;5055;52.054;8.524;2022-11-18T15:21:43;4.00;97.00
10030;DHT22;5055;52.054;8.524;2022-11-18T15:24:12;4.00;97.00
10030;DHT22;5055;52.054;8.524;2022-11-18T15:26:44;4.00;97.00
10030;DHT22;5055;52.054;8.524;2022-11-18T15:29:15;3.90;97.00
10030;DHT22;5055;52.054;8.524;2022-11-18T15:31:44;3.90;97.00
10030;DHT22;5055;52.054;8.524;2022-11-18T15:34:13;3.80;97.00
10030;DHT22;5055;52.054;8.524;2022-11-18T15:36:42;3.80;97.00
10030;DHT22;5055;52.054;8.524;2022-11-18T15:39:11;3.80;97.00
10030;DHT22;5055;52.054;8.524;2022-11-18T15:41:42;3.70;97.00
10030;DHT22;5055;52.054;8.524;2022-11-18T15:44:11;3.60;97.00
10030;DHT22;5055;52.054;8.524;2022-11-18T15:46:40;3.60;97.00
10030;DHT22;5055;52.054;8.524;2022-11-18T15:49:11;3.60;97.00
10030;DHT22;5055;52.054;8.524;2022-11-18T15:51:40;3.50;97.00
10030;DHT22;5055;52.054;8.524;2022-11-18T15:54:09;3.50;97.00
10030;DHT22;5055;52.054;8.524;2022-11-18T15:56:37;3.50;97.00
10030;DHT22;5055;52.054;8.524;2022-11-18T15:59:11;3.50;97.00
10030;DHT22;5055;52.054;8.524;2022-11-18T16:01:41;3.50;97.00
10030;DHT22;5055;52.054;8.524;2022-11-18T16:04:11;3.50;97.00
10030;DHT22;5055;52.054;8.524;2022-11-18T16:06:40;3.40;97.00
10030;DHT22;5055;52.054;8.524;2022-11-18T16:09:11;3.50;97.00
10030;DHT22;5055;52.054;8.524;2022-11-18T16:11:40;3.40;97.00
10030;DHT22;5055;52.054;8.524;2022-11-18T16:14:27;3.40;97.00
10030;DHT22;5055;52.054;8.524;2022-11-18T16:16:56;3.40;97.00
10030;DHT22;5055;52.054;8.524;2022-11-18T16:19:25;3.40;97.00
10030;DHT22;5055;52.054;8.524;2022-11-18T16:21:57;3.30;97.00
10030;DHT22;5055;52.054;8.524;2022-11-18T16:24:27;3.30;97.00
10030;DHT22;5055;52.054;8.524;2022-11-18T16:26:56;3.30;97.00
10030;DHT22;5055;52.054;8.524;2022-11-18T16:29:24;3.20;97.00
10030;DHT22;5055;52.054;8.524;2022-11-18T16:31:54;3.20;97.00
10030;DHT22;5055;52.054;8.524;2022-11-18T16:34:22;3.10;97.00
10030;DHT22;5055;52.054;8.524;2022-11-18T16:36:52;3.10;97.00
10030;DHT22;5055;52.054;8.524;2022-11-18T16:39:22;3.10;97.00
10030;DHT22;5055;52.054;8.524;2022-11-18T16:41:53;3.10;97.00
10030;DHT22;5055;52.054;8.524;2022-11-18T16:44:22;3.00;97.00
10030;DHT22;5055;52.054;8.524;2022-11-18T16:46:51;2.90;97.00
10030;DHT22;5055;52.054;8.524;2022-11-18T16:49:23;2.90;97.00
10030;DHT22;5055;52.054;8.524;2022-11-18T16:51:53;2.90;97.00
10030;DHT22;5055;52.054;8.524;2022-11-18T16:54:23;2.80;97.00
10030;DHT22;5055;52.054;8.524;2022-11-18T16:56:53;2.80;97.00